sensor_id;sensor_type;location;lat;lon;timestamp;temperature;humidity
17489;DHT22;8861;52.644;4.734;2022-11-12T00:00:58;8.70;99.90
17489;DHT22;8861;52.644;4.734;2022-11-12T00:03:25;8.80;99.90
17489;DHT22;8861;52.644;4.734;2022-11-12T00:05:54;8.80;99.90
17489;DHT22;8861;52.644;4.734;2022-11-12T00:08:20;8.90;99.90
17489;DHT22;8861;52.644;4.734;2022-11-12T00:10:48;9.00;99.90
17489;DHT22;8861;52.644;4.734;2022-11-12T00:13:15;9.00;99.90
17489;DHT22;8861;52.644;4.734;2022-11-12T00:15:42;9.10;99.90
17489;DHT22;8861;52.644;4.734;2022-11-12T00:18:08;9.10;99.90
17489;DHT22;8861;52.644;4.734;2022-11-12T00:20:35;9.20;99.90
17489;DHT22;8861;52.644;4.734;2022-11-12T00:23:04;9.30;99.90
17489;DHT22;8861;52.644;4.734;2022-11-12T00:25:31;9.30;99.90
17489;DHT22;8861;52.644;4.734;2022-11-12T00:28:02;9.30;99.90
17489;DHT22;8861;52.644;4.734;2022-11-12T00:30:29;9.30;99.90
17489;DHT22;8861;52.644;4.734;2022-11-12T00:33:00;9.40;99.90
17489;DHT22;8861;52.644;4.734;2022-11-12T00:35:27;9.40;99.90
17489;DHT22;8861;52.644;4.734;2022-11-12T00:37:54;9.40;99.90
17489;DHT22;8861;52.644;4.734;2022-11-12T00:40:23;9.40;99.90
17489;DHT22;8861;52.644;4.734;2022-11-12T00:42:50;9.40;99.90
17489;DHT22;8861;52.644;4.734;2022-11-12T00:45:17;9.50;99.90
17489;DHT22;8861;52.644;4.734;2022-11-12T00:47:45;9.50;99.90
17489;DHT22;8861;52.644;4.734;2022-11-12T00:50:12;9.50;99.90
17489;DHT22;8861;52.644;4.734;2022-11-12T00:52:40;9.50;99.90
17489;DHT22;8861;52.644;4.734;2022-11-12T00:55:07;9.60;99.90
17489;DHT22;8861;52.644;4.734;2022-11-12T00:57:35;9.60;99.90
17489;DHT22;8861;52.644;4.734;2022-11-12T01:00:03;9.60;99.90
17489;DHT22;8861;52.644;4.734;2022-11-12T01:02:31;9.60;99.90
17489;DHT22;8861;52.644;4.734;2022-11-12T01:04:58;9.60;99.90
17489;DHT22;8861;52.644;4.734;2022-11-12T01:07:24;9.60;99.90
17489;DHT22;8861;52.644;4.734;2022-11-12T01:09:52;9.60;99.90
17489;DHT22;8861;52.644;4.734;2022-11-12T01:12:19;9.70;99.90
17489;DHT22;8861;52.644;4.734;2022-11-12T01:14:47;9.70;99.90
17489;DHT22;8861;52.644;4.734;2022-11-12T01:17:14;9.70;99.90
17489;DHT22;8861;52.644;4.734;2022-11-12T01:19:41;9.70;99.90
17489;DHT22;8861;52.644;4.734;2022-11-12T01:22:09;9.70;99.90
17489;DHT22;8861;52.644;4.734;2022-11-12T01:24:36;9.80;99.90
17489;DHT22;8861;52.644;4.734;2022-11-12T01:27:03;9.80;99.90
17489;DHT22;8861;52.644;4.734;2022-11-12T01:29:30;9.80;99.90
17489;DHT22;8861;52.644;4.734;2022-11-12T01:31:58;9.90;99.90
17489;DHT22;8861;52.644;4.734;2022-11-12T01:34:26;9.90;99.90
17489;DHT22;8861;52.644;4.734;2022-11-12T01:36:53;9.90;99.90
17489;DHT22;8861;52.644;4.734;2022-11-12T01:39:20;10.00;99.90
17489;DHT22;8861;52.644;4.734;2022-11-12T01:41:46;9.90;99.90
17489;DHT22;8861;52.644;4.734;2022-11-12T01:44:16;9.90;99.90
17489;DHT22;8861;52.644;4.734;2022-11-12T01:47:00;9.90;99.90
17489;DHT22;8861;52.644;4.734;2022-11-12T01:49:33;9.90;99.90
17489;DHT22;8861;52.644;4.734;2022-11-12T01:52:12;9.90;99.90
17489;DHT22;8861;52.644;4.734;2022-11-12T01:54:40;10.00;99.90
17489;DHT22;8861;52.644;4.734;2022-11-12T01:57:09;10.00;99.90
17489;DHT22;8861;52.644;4.734;2022-11-12T01:59:42;10.00;99.90
17489;DHT22;8861;52.644;4.734;2022-11-12T02:02:11;10.00;99.90
17489;DHT22;8861;52.644;4.734;2022-11-12T02:04:39;10.10;99.90
17489;DHT22;8861;52.644;4.734;2022-11-12T02:07:08;10.00;99.90
17489;DHT22;8861;52.644;4.734;2022-11-12T02:09:36;10.10;99.90
17489;DHT22;8861;52.644;4.734;2022-11-12T02:12:04;10.10;99.90
17489;DHT22;8861;52.644;4.734;2022-11-12T02:14:31;10.10;99.90
17489;DHT22;8861;52.644;4.734;2022-11-12T02:16:57;10.10;99.90
17489;DHT22;8861;52.644;4.734;2022-11-12T02:19:26;10.20;99.90
17489;DHT22;8861;52.644;4.734;2022-11-12T02:21:55;10.20;99.90
17489;DHT22;8861;52.644;4.734;2022-11-12T02:24:34;10.20;99.90
17489;DHT22;8861;52.644;4.734;2022-11-12T02:27:03;10.20;99.90
17489;DHT22;8861;52.644;4.734;2022-11-12T02:29:31;10.20;99.90
17489;DHT22;8861;52.644;4.734;2022-11-12T02:31:58;10.20;99.90
17489;DHT22;8861;52.644;4.734;2022-11-12T02:34:25;10.30;99.90
17489;DHT22;8861;52.644;4.734;2022-11-12T02:36:52;10.30;99.90
17489;DHT22;8861;52.644;4.734;2022-11-12T02:39:20;10.30;99.90
17489;DHT22;8861;52.644;4.734;2022-11-12T02:41:47;10.30;99.90
17489;DHT22;8861;52.644;4.734;2022-11-12T02:44:14;10.30;99.90
17489;DHT22;8861;52.644;4.734;2022-11-12T02:46:41;10.30;99.90
17489;DHT22;8861;52.644;4.734;2022-11-12T02:49:08;10.30;99.90
17489;DHT22;8861;52.644;4.734;2022-11-12T02:51:34;10.30;99.90
17489;DHT22;8861;52.644;4.734;2022-11-12T02:54:01;10.30;99.90
17489;DHT22;8861;52.644;4.734;2022-11-12T02:56:30;10.30;99.90
17489;DHT22;8861;52.644;4.734;2022-11-12T02:58:56;10.30;99.90
17489;DHT22;8861;52.644;4.734;2022-11-12T03:01:23;10.30;99.90
17489;DHT22;8861;52.644;4.734;2022-11-12T03:03:50;10.30;99.90
17489;DHT22;8861;52.644;4.734;2022-11-12T03:06:17;10.40;99.90
17489;DHT22;8861;52.644;4.734;2022-11-12T03:08:44;10.30;99.90
17489;DHT22;8861;52.644;4.734;2022-11-12T03:11:12;10.40;99.90
17489;DHT22;8861;52.644;4.734;2022-11-12T03:13:41;10.40;99.90
17489;DHT22;8861;52.644;4.734;2022-11-12T03:16:08;10.30;99.90
17489;DHT22;8861;52.644;4.734;2022-11-12T03:18:35;10.30;99.90
17489;DHT22;8861;52.644;4.734;2022-11-12T03:21:03;10.40;99.90
17489;DHT22;8861;52.644;4.734;2022-11-12T03:23:30;10.30;99.90
17489;DHT22;8861;52.644;4.734;2022-11-12T03:25:57;10.40;99.90
17489;DHT22;8861;52.644;4.734;2022-11-12T03:28:24;10.30;99.90
17489;DHT22;8861;52.644;4.734;2022-11-12T03:30:56;10.40;99.90
17489;DHT22;8861;52.644;4.734;2022-11-12T03:33:24;10.30;99.90
17489;DHT22;8861;52.644;4.734;2022-11-12T03:35:51;10.40;99.90
17489;DHT22;8861;52.644;4.734;2022-11-12T03:38:17;10.30;99.90
17489;DHT22;8861;52.644;4.734;2022-11-12T03:40:44;10.30;99.90
17489;DHT22;8861;52.644;4.734;2022-11-12T03:43:11;10.30;99.90
17489;DHT22;8861;52.644;4.734;2022-11-12T03:45:38;10.30;99.90
17489;DHT22;8861;52.644;4.734;2022-11-12T03:48:06;10.30;99.90
17489;DHT22;8861;52.644;4.734;2022-11-12T03:50:33;10.30;99.90
17489;DHT22;8861;52.644;4.734;2022-11-12T03:53:00;10.30;99.90
17489;DHT22;8861;52.644;4.734;2022-11-12T03:55:28;10.30;99.90
17489;DHT22;8861;52.644;4.734;2022-11-12T03:57:56;10.30;99.90
17489;DHT22;8861;52.644;4.734;2022-11-12T04:00:26;10.30;99.90
17489;DHT22;8861;52.644;4.734;2022-11-12T04:02:53;10.40;99.90
17489;DHT22;8861;52.644;4.734;2022-11-12T04:05:22;10.40;99.90
17489;DHT22;8861;52.644;4.734;2022-11-12T04:08:10;10.40;99.90
17489;DHT22;8861;52.644;4.734;2022-11-12T04:10:56;10.40;99.90
17489;DHT22;8861;52.644;4.734;2022-11-12T04:13:23;10.40;99.90
17489;DHT22;8861;52.644;4.734;2022-11-12T04:15:58;10.40;99.90
17489;DHT22;8861;52.644;4.734;2022-11-12T04:18:44;10.40;99.90
17489;DHT22;8861;52.644;4.734;2022-11-12T04:21:32;10.40;99.90
17489;DHT22;8861;52.644;4.734;2022-11-12T04:24:22;10.50;99.90
17489;DHT22;8861;52.644;4.734;2022-11-12T04:27:08;10.40;99.90
17489;DHT22;8861;52.644;4.734;2022-11-12T04:29:36;10.50;99.90
17489;DHT22;8861;52.644;4.734;2022-11-12T04:32:21;10.50;99.90
17489;DHT22;8861;52.644;4.734;2022-11-12T04:34:48;10.50;99.90
17489;DHT22;8861;52.644;4.734;2022-11-12T04:37:16;10.50;99.90
17489;DHT22;8861;52.644;4.734;2022-11-12T04:39:43;10.50;99.90
17489;DHT22;8861;52.644;4.734;2022-11-12T04:42:10;10.40;99.90
17489;DHT22;8861;52.644;4.734;2022-11-12T04:44:55;10.40;99.90
17489;DHT22;8861;52.644;4.734;2022-11-12T04:47:26;10.40;99.90
17489;DHT22;8861;52.644;4.734;2022-11-12T04:49:53;10.30;99.90
17489;DHT22;8861;52.644;4.734;2022-11-12T04:52:22;10.20;99.90
17489;DHT22;8861;52.644;4.734;2022-11-12T04:54:49;10.20;99.90
17489;DHT22;8861;52.644;4.734;2022-11-12T04:57:15;10.20;99.90
17489;DHT22;8861;52.644;4.734;2022-11-12T04:59:42;10.20;99.90
17489;DHT22;8861;52.644;4.734;2022-11-12T05:02:09;10.10;99.90
17489;DHT22;8861;52.644;4.734;2022-11-12T05:04:36;10.00;99.90
17489;DHT22;8861;52.644;4.734;2022-11-12T05:07:03;10.00;99.90
17489;DHT22;8861;52.644;4.734;2022-11-12T05:09:31;9.90;99.90
17489;DHT22;8861;52.644;4.734;2022-11-12T05:11:58;9.90;99.90
17489;DHT22;8861;52.644;4.734;2022-11-12T05:14:25;9.80;99.90
17489;DHT22;8861;52.644;4.734;2022-11-12T05:16:52;9.80;99.90
17489;DHT22;8861;52.644;4.734;2022-11-12T05:19:19;9.80;99.90
17489;DHT22;8861;52.644;4.734;2022-11-12T05:21:46;9.70;99.90
17489;DHT22;8861;52.644;4.734;2022-11-12T05:24:27;9.70;99.90
17489;DHT22;8861;52.644;4.734;2022-11-12T05:26:55;9.70;99.90
17489;DHT22;8861;52.644;4.734;2022-11-12T05:29:22;9.60;99.90
17489;DHT22;8861;52.644;4.734;2022-11-12T05:31:48;9.60;99.90
17489;DHT22;8861;52.644;4.734;2022-11-12T05:34:15;9.60;99.90
17489;DHT22;8861;52.644;4.734;2022-11-12T05:36:42;9.60;99.90
17489;DHT22;8861;52.644;4.734;2022-11-12T05:39:09;9.60;99.90
17489;DHT22;8861;52.644;4.734;2022-11-12T05:41:36;9.60;99.90
17489;DHT22;8861;52.644;4.734;2022-11-12T05:44:04;9.60;99.90
17489;DHT22;8861;52.644;4.734;2022-11-12T05:46:31;9.50;99.90
17489;DHT22;8861;52.644;4.734;2022-11-12T05:48:58;9.50;99.90
17489;DHT22;8861;52.644;4.734;2022-11-12T05:51:25;9.50;99.90
17489;DHT22;8861;52.644;4.734;2022-11-12T05:53:52;9.50;99.90
17489;DHT22;8861;52.644;4.734;2022-11-12T05:56:18;9.40;99.90
17489;DHT22;8861;52.644;4.734;2022-11-12T05:58:45;9.40;99.90
17489;DHT22;8861;52.644;4.734;2022-11-12T06:01:13;9.40;99.90
17489;DHT22;8861;52.644;4.734;2022-11-12T06:03:40;9.40;99.90
17489;DHT22;8861;52.644;4.734;2022-11-12T06:06:07;9.40;99.90
17489;DHT22;8861;52.644;4.734;2022-11-12T06:08:34;9.30;99.90
17489;DHT22;8861;52.644;4.734;2022-11-12T06:11:01;9.20;99.90
17489;DHT22;8861;52.644;4.734;2022-11-12T06:13:28;9.20;99.90
17489;DHT22;8861;52.644;4.734;2022-11-12T06:15:55;9.20;99.90
17489;DHT22;8861;52.644;4.734;2022-11-12T06:18:24;9.20;99.90
17489;DHT22;8861;52.644;4.734;2022-11-12T06:20:51;9.20;99.90
17489;DHT22;8861;52.644;4.734;2022-11-12T06:23:32;9.20;99.90
17489;DHT22;8861;52.644;4.734;2022-11-12T06:25:59;9.20;99.90
17489;DHT22;8861;52.644;4.734;2022-11-12T06:28:26;9.20;99.90
17489;DHT22;8861;52.644;4.734;2022-11-12T06:30:53;9.20;99.90
17489;DHT22;8861;52.644;4.734;2022-11-12T06:33:20;9.20;99.90
17489;DHT22;8861;52.644;4.734;2022-11-12T06:35:55;9.10;99.90
17489;DHT22;8861;52.644;4.734;2022-11-12T06:38:23;9.10;99.90
17489;DHT22;8861;52.644;4.734;2022-11-12T06:40:50;9.10;99.90
17489;DHT22;8861;52.644;4.734;2022-11-12T06:43:17;9.10;99.90
17489;DHT22;8861;52.644;4.734;2022-11-12T06:45:43;9.10;99.90
17489;DHT22;8861;52.644;4.734;2022-11-12T06:48:10;9.10;99.90
17489;DHT22;8861;52.644;4.734;2022-11-12T06:50:37;9.10;99.90
17489;DHT22;8861;52.644;4.734;2022-11-12T06:53:05;9.20;99.90
17489;DHT22;8861;52.644;4.734;2022-11-12T06:55:32;9.10;99.90
17489;DHT22;8861;52.644;4.734;2022-11-12T06:57:59;9.10;99.90
17489;DHT22;8861;52.644;4.734;2022-11-12T07:00:26;9.20;99.90
17489;DHT22;8861;52.644;4.734;2022-11-12T07:02:53;9.10;99.90
17489;DHT22;8861;52.644;4.734;2022-11-12T07:05:20;9.20;99.90
17489;DHT22;8861;52.644;4.734;2022-11-12T07:07:46;9.20;99.90
17489;DHT22;8861;52.644;4.734;2022-11-12T07:10:15;9.20;99.90
17489;DHT22;8861;52.644;4.734;2022-11-12T07:12:42;9.20;99.90
17489;DHT22;8861;52.644;4.734;2022-11-12T07:15:09;9.20;99.90
17489;DHT22;8861;52.644;4.734;2022-11-12T07:17:36;9.20;99.90
17489;DHT22;8861;52.644;4.734;2022-11-12T07:20:03;9.30;99.90
17489;DHT22;8861;52.644;4.734;2022-11-12T07:22:32;9.30;99.90
17489;DHT22;8861;52.644;4.734;2022-11-12T07:24:59;9.30;99.90
17489;DHT22;8861;52.644;4.734;2022-11-12T07:27:29;9.30;99.90
17489;DHT22;8861;52.644;4.734;2022-11-12T07:29:56;9.30;99.90
17489;DHT22;8861;52.644;4.734;2022-11-12T07:32:23;9.30;99.90
17489;DHT22;8861;52.644;4.734;2022-11-12T07:34:50;9.40;99.90
17489;DHT22;8861;52.644;4.734;2022-11-12T07:37:17;9.30;99.90
17489;DHT22;8861;52.644;4.734;2022-11-12T07:39:43;9.30;99.90
17489;DHT22;8861;52.644;4.734;2022-11-12T07:42:10;9.40;99.90
17489;DHT22;8861;52.644;4.734;2022-11-12T07:44:38;9.40;99.90
17489;DHT22;8861;52.644;4.734;2022-11-12T07:47:05;9.40;99.90
17489;DHT22;8861;52.644;4.734;2022-11-12T07:49:32;9.40;99.90
17489;DHT22;8861;52.644;4.734;2022-11-12T07:51:59;9.40;99.90
17489;DHT22;8861;52.644;4.734;2022-11-12T07:54:26;9.40;99.90
17489;DHT22;8861;52.644;4.734;2022-11-12T07:56:53;9.40;99.90
17489;DHT22;8861;52.644;4.734;2022-11-12T07:59:20;9.50;99.90
17489;DHT22;8861;52.644;4.734;2022-11-12T08:01:48;9.50;99.90
17489;DHT22;8861;52.644;4.734;2022-11-12T08:04:14;9.50;99.90
17489;DHT22;8861;52.644;4.734;2022-11-12T08:06:41;9.50;99.90
17489;DHT22;8861;52.644;4.734;2022-11-12T08:09:08;9.60;99.90
17489;DHT22;8861;52.644;4.734;2022-11-12T08:11:35;9.60;99.90
17489;DHT22;8861;52.644;4.734;2022-11-12T08:14:03;9.60;99.90
17489;DHT22;8861;52.644;4.734;2022-11-12T08:16:30;9.60;99.90
17489;DHT22;8861;52.644;4.734;2022-11-12T08:18:59;9.60;99.90
17489;DHT22;8861;52.644;4.734;2022-11-12T08:21:26;9.60;99.90
17489;DHT22;8861;52.644;4.734;2022-11-12T08:23:53;9.70;99.90
17489;DHT22;8861;52.644;4.734;2022-11-12T08:26:20;9.70;99.90
17489;DHT22;8861;52.644;4.734;2022-11-12T08:28:47;9.70;99.90
17489;DHT22;8861;52.644;4.734;2022-11-12T08:31:18;9.70;99.90
17489;DHT22;8861;52.644;4.734;2022-11-12T08:33:45;9.70;99.90
17489;DHT22;8861;52.644;4.734;2022-11-12T08:36:14;9.80;99.90
17489;DHT22;8861;52.644;4.734;2022-11-12T08:38:42;9.80;99.90
17489;DHT22;8861;52.644;4.734;2022-11-12T08:41:10;9.80;99.90
17489;DHT22;8861;52.644;4.734;2022-11-12T08:43:38;9.90;99.90
17489;DHT22;8861;52.644;4.734;2022-11-12T08:46:06;9.90;99.90
17489;DHT22;8861;52.644;4.734;2022-11-12T08:48:34;10.00;99.90
17489;DHT22;8861;52.644;4.734;2022-11-12T08:51:03;10.10;99.90
17489;DHT22;8861;52.644;4.734;2022-11-12T08:53:31;10.10;99.90
17489;DHT22;8861;52.644;4.734;2022-11-12T08:55:58;10.10;99.90
17489;DHT22;8861;52.644;4.734;2022-11-12T08:58:26;10.10;99.90
17489;DHT22;8861;52.644;4.734;2022-11-12T09:00:53;10.10;99.90
17489;DHT22;8861;52.644;4.734;2022-11-12T09:03:22;10.20;99.90
17489;DHT22;8861;52.644;4.734;2022-11-12T09:05:49;10.30;99.90
17489;DHT22;8861;52.644;4.734;2022-11-12T09:08:18;10.40;99.90
17489;DHT22;8861;52.644;4.734;2022-11-12T09:10:48;10.40;99.90
17489;DHT22;8861;52.644;4.734;2022-11-12T09:13:15;10.40;99.90
17489;DHT22;8861;52.644;4.734;2022-11-12T09:15:43;10.50;99.90
17489;DHT22;8861;52.644;4.734;2022-11-12T09:18:12;10.60;99.90
17489;DHT22;8861;52.644;4.734;2022-11-12T09:20:40;10.60;99.90
17489;DHT22;8861;52.644;4.734;2022-11-12T09:23:08;10.70;99.90
17489;DHT22;8861;52.644;4.734;2022-11-12T09:25:35;10.80;99.90
17489;DHT22;8861;52.644;4.734;2022-11-12T09:28:08;10.80;99.90
17489;DHT22;8861;52.644;4.734;2022-11-12T09:30:36;10.80;99.90
17489;DHT22;8861;52.644;4.734;2022-11-12T09:33:03;10.90;99.90
17489;DHT22;8861;52.644;4.734;2022-11-12T09:35:30;11.00;99.90
17489;DHT22;8861;52.644;4.734;2022-11-12T09:37:57;11.00;99.90
17489;DHT22;8861;52.644;4.734;2022-11-12T09:40:36;11.10;99.90
17489;DHT22;8861;52.644;4.734;2022-11-12T09:43:15;11.20;99.90
17489;DHT22;8861;52.644;4.734;2022-11-12T09:45:45;11.20;99.90
17489;DHT22;8861;52.644;4.734;2022-11-12T09:48:15;11.30;99.90
17489;DHT22;8861;52.644;4.734;2022-11-12T09:50:51;11.40;99.90
17489;DHT22;8861;52.644;4.734;2022-11-12T09:53:25;11.40;99.90
17489;DHT22;8861;52.644;4.734;2022-11-12T09:55:55;11.50;99.90
17489;DHT22;8861;52.644;4.734;2022-11-12T09:58:24;11.50;99.90
17489;DHT22;8861;52.644;4.734;2022-11-12T10:00:54;11.40;99.90
17489;DHT22;8861;52.644;4.734;2022-11-12T10:03:30;11.30;99.90
17489;DHT22;8861;52.644;4.734;2022-11-12T10:06:05;11.20;99.90
17489;DHT22;8861;52.644;4.734;2022-11-12T10:08:40;11.20;99.90
17489;DHT22;8861;52.644;4.734;2022-11-12T10:14:54;11.10;99.90
17489;DHT22;8861;52.644;4.734;2022-11-12T10:17:48;11.30;99.90
17489;DHT22;8861;52.644;4.734;2022-11-12T10:20:19;11.40;99.90
17489;DHT22;8861;52.644;4.734;2022-11-12T10:23:04;11.40;99.90
17489;DHT22;8861;52.644;4.734;2022-11-12T10:25:33;11.40;99.90
17489;DHT22;8861;52.644;4.734;2022-11-12T10:28:04;11.40;99.90
17489;DHT22;8861;52.644;4.734;2022-11-12T10:30:35;11.30;99.90
17489;DHT22;8861;52.644;4.734;2022-11-12T10:33:03;11.30;99.90
17489;DHT22;8861;52.644;4.734;2022-11-12T10:35:29;11.40;99.90
17489;DHT22;8861;52.644;4.734;2022-11-12T10:37:58;11.40;99.90
17489;DHT22;8861;52.644;4.734;2022-11-12T10:40:29;11.40;99.90
17489;DHT22;8861;52.644;4.734;2022-11-12T10:42:58;11.40;99.90
17489;DHT22;8861;52.644;4.734;2022-11-12T10:45:25;11.40;99.90
17489;DHT22;8861;52.644;4.734;2022-11-12T10:47:54;11.30;99.90
17489;DHT22;8861;52.644;4.734;2022-11-12T10:50:24;11.30;99.90
17489;DHT22;8861;52.644;4.734;2022-11-12T10:52:55;11.30;99.90
17489;DHT22;8861;52.644;4.734;2022-11-12T10:55:25;11.30;99.90
17489;DHT22;8861;52.644;4.734;2022-11-12T10:58:19;11.30;99.90
17489;DHT22;8861;52.644;4.734;2022-11-12T11:00:52;11.30;99.90
17489;DHT22;8861;52.644;4.734;2022-11-12T11:03:23;11.30;99.90
17489;DHT22;8861;52.644;4.734;2022-11-12T11:05:53;11.30;99.90
17489;DHT22;8861;52.644;4.734;2022-11-12T11:08:35;11.40;99.90
17489;DHT22;8861;52.644;4.734;2022-11-12T11:11:23;11.40;99.90
17489;DHT22;8861;52.644;4.734;2022-11-12T11:13:51;11.40;99.90
17489;DHT22;8861;52.644;4.734;2022-11-12T11:16:20;11.50;99.90
17489;DHT22;8861;52.644;4.734;2022-11-12T11:18:51;11.50;99.90
17489;DHT22;8861;52.644;4.734;2022-11-12T11:21:42;11.60;99.90
17489;DHT22;8861;52.644;4.734;2022-11-12T11:24:21;11.70;99.90
17489;DHT22;8861;52.644;4.734;2022-11-12T11:26:57;11.70;99.90
17489;DHT22;8861;52.644;4.734;2022-11-12T11:29:47;11.80;99.90
17489;DHT22;8861;52.644;4.734;2022-11-12T11:32:29;11.90;99.90
17489;DHT22;8861;52.644;4.734;2022-11-12T11:35:06;12.00;99.90
17489;DHT22;8861;52.644;4.734;2022-11-12T11:37:42;12.00;99.90
17489;DHT22;8861;52.644;4.734;2022-11-12T11:40:19;12.10;99.90
17489;DHT22;8861;52.644;4.734;2022-11-12T11:43:07;12.20;99.90
17489;DHT22;8861;52.644;4.734;2022-11-12T11:45:48;12.30;99.90
17489;DHT22;8861;52.644;4.734;2022-11-12T11:48:27;12.40;99.90
17489;DHT22;8861;52.644;4.734;2022-11-12T11:51:02;12.40;99.90
17489;DHT22;8861;52.644;4.734;2022-11-12T11:53:36;12.50;99.90
17489;DHT22;8861;52.644;4.734;2022-11-12T11:56:10;12.60;99.90
17489;DHT22;8861;52.644;4.734;2022-11-12T11:58:52;12.70;99.90
17489;DHT22;8861;52.644;4.734;2022-11-12T12:01:28;12.70;99.90
17489;DHT22;8861;52.644;4.734;2022-11-12T12:04:08;12.80;99.90
17489;DHT22;8861;52.644;4.734;2022-11-12T12:06:58;12.80;99.90
17489;DHT22;8861;52.644;4.734;2022-11-12T12:09:34;12.90;99.90
17489;DHT22;8861;52.644;4.734;2022-11-12T12:12:12;13.00;99.90
17489;DHT22;8861;52.644;4.734;2022-11-12T12:14:50;13.00;99.90
17489;DHT22;8861;52.644;4.734;2022-11-12T12:17:36;13.10;99.90
17489;DHT22;8861;52.644;4.734;2022-11-12T12:20:16;13.20;99.90
17489;DHT22;8861;52.644;4.734;2022-11-12T12:22:49;13.30;99.90
17489;DHT22;8861;52.644;4.734;2022-11-12T12:25:21;13.40;99.90
17489;DHT22;8861;52.644;4.734;2022-11-12T12:27:54;13.40;99.90
17489;DHT22;8861;52.644;4.734;2022-11-12T12:30:23;13.50;99.90
17489;DHT22;8861;52.644;4.734;2022-11-12T12:32:54;13.50;99.90
17489;DHT22;8861;52.644;4.734;2022-11-12T12:35:25;13.50;99.90
17489;DHT22;8861;52.644;4.734;2022-11-12T12:38:00;13.60;99.90
17489;DHT22;8861;52.644;4.734;2022-11-12T12:40:34;13.60;99.90
17489;DHT22;8861;52.644;4.734;2022-11-12T12:43:09;13.60;99.90
17489;DHT22;8861;52.644;4.734;2022-11-12T12:45:40;13.60;99.90
17489;DHT22;8861;52.644;4.734;2022-11-12T12:48:12;13.60;99.90
17489;DHT22;8861;52.644;4.734;2022-11-12T12:50:41;13.60;99.90
17489;DHT22;8861;52.644;4.734;2022-11-12T12:53:29;13.70;99.90
17489;DHT22;8861;52.644;4.734;2022-11-12T12:55:58;13.70;99.90
17489;DHT22;8861;52.644;4.734;2022-11-12T12:58:27;13.70;99.90
17489;DHT22;8861;52.644;4.734;2022-11-12T13:00:59;13.70;99.90
17489;DHT22;8861;52.644;4.734;2022-11-12T13:03:52;13.70;99.90
17489;DHT22;8861;52.644;4.734;2022-11-12T13:06:26;13.70;99.90
17489;DHT22;8861;52.644;4.734;2022-11-12T13:08:57;13.70;99.90
17489;DHT22;8861;52.644;4.734;2022-11-12T13:11:53;13.70;99.90
17489;DHT22;8861;52.644;4.734;2022-11-12T13:15:10;13.70;99.90
17489;DHT22;8861;52.644;4.734;2022-11-12T13:17:49;13.70;99.90
17489;DHT22;8861;52.644;4.734;2022-11-12T13:20:39;13.70;99.90
17489;DHT22;8861;52.644;4.734;2022-11-12T13:26:48;13.70;99.90
17489;DHT22;8861;52.644;4.734;2022-11-12T13:29:21;13.70;99.90
17489;DHT22;8861;52.644;4.734;2022-11-12T13:31:48;13.70;99.90
17489;DHT22;8861;52.644;4.734;2022-11-12T13:34:20;13.70;99.90
17489;DHT22;8861;52.644;4.734;2022-11-12T13:36:55;13.70;99.90
17489;DHT22;8861;52.644;4.734;2022-11-12T13:39:24;13.70;99.90
17489;DHT22;8861;52.644;4.734;2022-11-12T13:41:58;13.70;99.90
17489;DHT22;8861;52.644;4.734;2022-11-12T13:44:43;13.70;99.90
17489;DHT22;8861;52.644;4.734;2022-11-12T13:47:14;13.70;99.90
17489;DHT22;8861;52.644;4.734;2022-11-12T13:49:43;13.70;99.90
17489;DHT22;8861;52.644;4.734;2022-11-12T13:52:13;13.70;99.90
17489;DHT22;8861;52.644;4.734;2022-11-12T13:54:40;13.70;99.90
17489;DHT22;8861;52.644;4.734;2022-11-12T13:57:25;13.60;99.90
17489;DHT22;8861;52.644;4.734;2022-11-12T14:00:18;13.60;99.90
17489;DHT22;8861;52.644;4.734;2022-11-12T14:02:49;13.70;99.90
17489;DHT22;8861;52.644;4.734;2022-11-12T14:05:18;13.60;99.90
17489;DHT22;8861;52.644;4.734;2022-11-12T14:07:53;13.60;99.90
17489;DHT22;8861;52.644;4.734;2022-11-12T14:10:29;13.70;99.90
17489;DHT22;8861;52.644;4.734;2022-11-12T14:13:11;13.60;99.90
17489;DHT22;8861;52.644;4.734;2022-11-12T14:16:04;13.60;99.90
17489;DHT22;8861;52.644;4.734;2022-11-12T14:18:46;13.60;99.90
17489;DHT22;8861;52.644;4.734;2022-11-12T14:21:17;13.60;99.90
17489;DHT22;8861;52.644;4.734;2022-11-12T14:23:46;13.60;99.90
17489;DHT22;8861;52.644;4.734;2022-11-12T14:26:32;13.60;99.90
17489;DHT22;8861;52.644;4.734;2022-11-12T14:29:01;13.60;99.90
17489;DHT22;8861;52.644;4.734;2022-11-12T14:31:28;13.60;99.90
17489;DHT22;8861;52.644;4.734;2022-11-12T14:33:55;13.50;99.90
17489;DHT22;8861;52.644;4.734;2022-11-12T14:36:22;13.50;99.90
17489;DHT22;8861;52.644;4.734;2022-11-12T14:38:51;13.50;99.90
17489;DHT22;8861;52.644;4.734;2022-11-12T14:41:20;13.40;99.90
17489;DHT22;8861;52.644;4.734;2022-11-12T14:43:50;13.40;99.90
17489;DHT22;8861;52.644;4.734;2022-11-12T14:46:22;13.30;99.90
17489;DHT22;8861;52.644;4.734;2022-11-12T14:48:52;13.30;99.90
17489;DHT22;8861;52.644;4.734;2022-11-12T14:51:21;13.20;99.90
17489;DHT22;8861;52.644;4.734;2022-11-12T14:53:53;13.20;99.90
17489;DHT22;8861;52.644;4.734;2022-11-12T14:56:26;13.10;99.90
17489;DHT22;8861;52.644;4.734;2022-11-12T14:58:54;13.00;99.90
17489;DHT22;8861;52.644;4.734;2022-11-12T15:01:25;13.00;99.90
17489;DHT22;8861;52.644;4.734;2022-11-12T15:04:03;12.90;99.90
17489;DHT22;8861;52.644;4.734;2022-11-12T15:06:31;12.80;99.90
17489;DHT22;8861;52.644;4.734;2022-11-12T15:08:59;12.70;99.90
17489;DHT22;8861;52.644;4.734;2022-11-12T15:11:29;12.70;99.90
17489;DHT22;8861;52.644;4.734;2022-11-12T15:13:59;12.50;99.90
17489;DHT22;8861;52.644;4.734;2022-11-12T15:16:31;12.50;99.90
17489;DHT22;8861;52.644;4.734;2022-11-12T15:19:17;12.40;99.90
17489;DHT22;8861;52.644;4.734;2022-11-12T15:21:47;12.30;99.90
17489;DHT22;8861;52.644;4.734;2022-11-12T15:24:23;12.20;99.90
17489;DHT22;8861;52.644;4.734;2022-11-12T15:26:52;12.20;99.90
17489;DHT22;8861;52.644;4.734;2022-11-12T15:29:26;12.10;99.90
17489;DHT22;8861;52.644;4.734;2022-11-12T15:31:56;12.00;99.90
17489;DHT22;8861;52.644;4.734;2022-11-12T15:37:22;11.80;99.90
17489;DHT22;8861;52.644;4.734;2022-11-12T15:39:51;11.80;99.90
17489;DHT22;8861;52.644;4.734;2022-11-12T15:42:24;11.70;99.90
17489;DHT22;8861;52.644;4.734;2022-11-12T15:44:57;11.60;99.90
17489;DHT22;8861;52.644;4.734;2022-11-12T15:47:26;11.60;99.90
17489;DHT22;8861;52.644;4.734;2022-11-12T15:49:55;11.50;99.90
17489;DHT22;8861;52.644;4.734;2022-11-12T15:52:23;11.40;99.90
17489;DHT22;8861;52.644;4.734;2022-11-12T15:54:50;11.40;99.90
17489;DHT22;8861;52.644;4.734;2022-11-12T15:57:19;11.30;99.90
17489;DHT22;8861;52.644;4.734;2022-11-12T15:59:52;11.20;99.90
17489;DHT22;8861;52.644;4.734;2022-11-12T16:02:23;11.20;99.90
17489;DHT22;8861;52.644;4.734;2022-11-12T16:04:52;11.10;99.90
17489;DHT22;8861;52.644;4.734;2022-11-12T16:07:18;11.10;99.90
17489;DHT22;8861;52.644;4.734;2022-11-12T16:09:45;11.00;99.90
17489;DHT22;8861;52.644;4.734;2022-11-12T16:12:13;11.00;99.90
17489;DHT22;8861;52.644;4.734;2022-11-12T16:14:40;11.00;99.90
17489;DHT22;8861;52.644;4.734;2022-11-12T16:17:11;10.90;99.90
17489;DHT22;8861;52.644;4.734;2022-11-12T16:19:38;10.90;99.90
17489;DHT22;8861;52.644;4.734;2022-11-12T16:22:07;10.90;99.90
17489;DHT22;8861;52.644;4.734;2022-11-12T16:24:38;10.80;99.90